Flight Track Log - Related Links

Times and Time Zones

All times are in EDT time to prevent confusion due to time zone crossing. See the DAL695 flight status page for this flight to view local times or setup timezone preferences in your user account.

Time Position Orientation Groundspeed Altitude Reporting Facility
EDT Latitude Longitude Course Direction KTS MPH feet Rate Location/Type
Sun 02:52:20 PM 28.4000 -81.3000 221° Southwest 167 192 700  Level Orlando TRACON
Sun 02:53:02 PM 28.3833 -81.3167 221° Southwest 186 214 2,100 1,765 Climbing Orlando TRACON
Sun 02:54:02 PM 28.3333 -81.3833 230° Southwest 284 327 3,700 2,400 Climbing Orlando TRACON
Sun 02:55:02 PM 28.3333 -81.4667 270° West 283 326 6,900 2,200 Climbing Orlando TRACON
Sun 02:56:02 PM 28.3500 -81.5500 283° West 301 346 8,100 1,579 Climbing Orlando TRACON
Sun 02:56:56 PM 28.4167 -81.6167 319° Northwest 299 344 9,900 1,000 Climbing Orlando TRACON
Sun 02:57:56 PM 28.4667 -81.6833 310° West 303 349 10,000 150 Climbing Orlando TRACON
Sun 02:58:56 PM 28.5167 -81.7333 319° Northwest 300 345 10,200 1,314 Climbing Orlando TRACON
Sun 03:00:45 PM 28.5092 -81.9144 267° West 309 356 13,700 2,024 Climbing Jacksonville Center
Sun 03:01:45 PM 28.4872 -82.0211 257° West 324 373 15,900 2,050 Climbing Jacksonville Center
Sun 03:02:45 PM 28.4942 -82.1272 274° West 336 387 17,800 1,450 Climbing Jacksonville Center
Sun 03:03:45 PM 28.5511 -82.2331 302° West 363 418 18,800 1,250 Climbing Jacksonville Center
Sun 03:04:45 PM 28.6119 -82.3486 301° West 385 443 20,300 2,150 Climbing Jacksonville Center
Sun 03:05:45 PM 28.6750 -82.4572 304° West 405 466 23,100 2,150 Climbing Jacksonville Center
Sun 03:06:45 PM 28.7797 -82.5111 336° Northwest 386 444 24,600 1,400 Climbing Jacksonville Center
Sun 03:07:45 PM 28.8861 -82.5558 340° North 402 463 25,900 650 Climbing Jacksonville Center
Sun 03:08:45 PM 29.0053 -82.6078 339° North 422 486 25,900 150 Level Jacksonville Center
Sun 03:09:45 PM 29.1306 -82.6478 344° North 447 514 26,200 550 Climbing Jacksonville Center
Sun 03:10:45 PM 29.2622 -82.6642 354° North 455 524 27,000 550 Climbing Jacksonville Center
Sun 03:11:45 PM 29.3936 -82.6708 357° North 468 539 27,300 550 Climbing Jacksonville Center
Sun 03:12:45 PM 29.5147 -82.6850 354° North 480 552 28,100 900 Climbing Jacksonville Center
Sun 03:13:45 PM 29.6483 -82.6989 355° North 480 552 29,100 1,050 Climbing Jacksonville Center
Sun 03:14:45 PM 29.7842 -82.7083 357° North 480 552 30,200 1,100 Climbing Jacksonville Center
Sun 03:15:45 PM 29.9156 -82.7200 356° North 480 552 31,300 1,300 Climbing Jacksonville Center
Sun 03:16:45 PM 30.0514 -82.7175 North 480 552 32,800 1,250 Climbing Jacksonville Center
Sun 03:17:45 PM 30.1808 -82.7075 North 474 545 33,800 1,000 Climbing Jacksonville Center
Sun 03:18:45 PM 30.3103 -82.7000 North 474 545 34,800 600 Climbing Jacksonville Center
Sun 03:19:45 PM 30.4356 -82.6853 North 463 533 35,000 50 Climbing Jacksonville Center
Sun 03:20:45 PM 30.5647 -82.6272 21° North 454 522 34,900 -50 Descending Jacksonville Center
Sun 03:21:45 PM 30.6647 -82.5256 41° Northeast 442 509 34,900 50 Level Jacksonville Center
Sun 03:22:45 PM 30.7625 -82.4186 43° Northeast 466 536 35,000 50 Climbing Jacksonville Center
Sun 03:23:45 PM 30.8581 -82.3142 43° Northeast 471 542 35,000  Level Jacksonville Center
Sun 03:24:45 PM 30.9558 -82.2094 43° Northeast 476 548 35,000  Level Jacksonville Center
Sun 03:25:45 PM 31.0553 -82.1019 43° Northeast 471 542 35,000 -50 Level Jacksonville Center
Sun 03:26:45 PM 31.1486 -81.9992 43° Northeast 471 542 34,900 -50 Descending Jacksonville Center
Sun 03:27:45 PM 31.2481 -81.8939 42° Northeast 471 542 34,900 50 Level Jacksonville Center
Sun 03:28:45 PM 31.3456 -81.7978 40° Northeast 466 536 35,000 50 Climbing Jacksonville Center
Sun 03:29:45 PM 31.4467 -81.6872 43° Northeast 466 536 35,000  Level Jacksonville Center
Sun 03:30:45 PM 31.5461 -81.5883 40° Northeast 471 542 35,000  Level Jacksonville Center
Sun 03:31:45 PM 31.6328 -81.4969 42° Northeast 471 542 35,000  Level Jacksonville Center
Sun 03:32:45 PM 31.7442 -81.3853 40° Northeast 471 542 35,000  Level Jacksonville Center
Sun 03:33:45 PM 31.8411 -81.2833 42° Northeast 476 548 35,000 -50 Level Jacksonville Center
Sun 03:34:45 PM 31.9442 -81.1789 41° Northeast 476 548 34,900 -50 Descending Jacksonville Center
Sun 03:35:45 PM 32.0428 -81.0789 41° Northeast 476 548 34,900 50 Level Jacksonville Center
Sun 03:36:45 PM 32.1356 -80.9864 40° Northeast 476 548 35,000 50 Climbing Jacksonville Center
Sun 03:37:45 PM 32.2444 -80.8711 42° Northeast 475 547 35,000  Level Jacksonville Center
Sun 03:38:45 PM 32.3428 -80.7706 41° Northeast 470 541 35,000 -50 Level Jacksonville Center
Sun 03:39:45 PM 32.4372 -80.6650 43° Northeast 465 535 34,900  Descending Jacksonville Center
Sun 03:40:45 PM 32.5356 -80.5639 41° Northeast 460 529 35,000  Climbing Jacksonville Center
Sun 03:41:45 PM 32.6317 -80.4628 42° Northeast 458 527 34,900 -50 Descending Jacksonville Center
Sun 03:42:45 PM 32.7300 -80.3589 42° Northeast 457 526 34,900 50 Level Jacksonville Center
Sun 03:43:45 PM 32.8239 -80.2575 42° Northeast 457 526 35,000 50 Climbing Jacksonville Center
Sun 03:44:45 PM 32.9217 -80.1481 43° Northeast 457 526 35,000  Level Jacksonville Center
Sun 03:45:45 PM 33.0217 -80.0386 43° Northeast 473 544 35,000 -50 Level Jacksonville Center
Sun 03:46:45 PM 33.1236 -79.9361 40° Northeast 473 544 34,900 -50 Descending Jacksonville Center
Sun 03:47:45 PM 33.2233 -79.8311 41° Northeast 473 544 34,900 50 Level Jacksonville Center
Sun 03:48:45 PM 33.3058 -79.7064 52° Northeast 473 544 35,000 50 Climbing Jacksonville Center
Sun 03:49:45 PM 33.3903 -79.5814 51° Northeast 473 544 35,000  Level Jacksonville Center
Sun 03:50:45 PM 33.4725 -79.4564 52° Northeast 473 544 35,000 -50 Level Jacksonville Center
Sun 03:51:45 PM 33.5567 -79.3336 51° Northeast 478 550 34,900 -50 Descending Jacksonville Center
Sun 03:52:45 PM 33.6364 -79.2031 54° Northeast 478 550 34,900  Level Jacksonville Center
Sun 03:53:45 PM 33.7164 -79.0825 51° Northeast 473 544 34,900  Level Jacksonville Center
Sun 03:54:45 PM 33.8108 -78.9683 45° Northeast 468 539 34,900 50 Level Jacksonville Center
Sun 03:55:45 PM 33.9225 -78.8733 35° Northeast 473 544 35,000 29 Climbing Jacksonville Center
Sun 03:58:10 PM 34.1872 -78.6397 36° Northeast 498 573 35,000 -29 Level Washington Center
Sun 03:59:09 PM 34.2983 -78.5408 36° Northeast 498 573 34,900 -50 Descending Washington Center
Sun 04:00:09 PM 34.4092 -78.4414 37° Northeast 493 567 34,900 50 Level Washington Center
Sun 04:01:10 PM 34.5200 -78.3444 36° Northeast 493 567 35,000 50 Climbing Washington Center
Sun 04:02:10 PM 34.6308 -78.2422 37° Northeast 493 567 35,000  Level Washington Center
Sun 04:03:10 PM 34.7392 -78.1447 36° Northeast 493 567 35,000  Level Washington Center
Sun 04:04:11 PM 34.8350 -78.0517 39° Northeast 493 567 35,000  Level Washington Center
Sun 04:05:09 PM 34.9456 -77.9483 37° Northeast 493 567 35,000  Level Washington Center
Sun 04:06:10 PM 35.0539 -77.8503 37° Northeast 493 567 35,000  Level Washington Center
Sun 04:07:10 PM 35.1644 -77.7467 37° Northeast 493 567 35,000  Level Washington Center
Sun 04:08:10 PM 35.2747 -77.6453 37° Northeast 493 567 35,000  Level Washington Center
Sun 04:09:23 PM 35.3847 -77.5461 36° Northeast 493 567 35,000  Level Washington Center
Sun 04:10:21 PM 35.5181 -77.4294 35° Northeast 493 567 35,000  Level Washington Center
Sun 04:11:21 PM 35.6303 -77.3322 35° Northeast 493 567 35,000  Level Washington Center
Sun 04:12:22 PM 35.7422 -77.2350 35° Northeast 488 562 35,000  Level Washington Center
Sun 04:13:22 PM 35.8625 -77.1272 36° Northeast 488 562 35,000  Level Washington Center
Sun 04:14:22 PM 35.9783 -77.0269 35° Northeast 488 562 35,000 -50 Level Washington Center
Sun 04:15:23 PM 36.0922 -76.9236 36° Northeast 493 567 34,900 -50 Descending Washington Center
Sun 04:16:23 PM 36.2061 -76.8225 36° Northeast 493 567 34,900  Level Washington Center
Sun 04:17:23 PM 36.3258 -76.7367 30° Northeast 498 573 34,900  Level Washington Center
Sun 04:18:21 PM 36.4478 -76.6506 30° Northeast 498 573 34,900 50 Level Washington Center
Sun 04:19:22 PM 36.5694 -76.5644 30° Northeast 493 567 35,000 49 Climbing Washington Center
Sun 04:20:23 PM 36.6911 -76.4778 30° Northeast 493 567 35,000  Level Washington Center
Sun 04:21:23 PM 36.8106 -76.3883 31° Northeast 493 567 35,000  Level Washington Center
Sun 04:22:21 PM 36.9322 -76.2961 31° Northeast 493 567 35,000  Level Washington Center
Sun 04:23:21 PM 37.0431 -76.2139 31° Northeast 498 573 35,000  Level Washington Center
Sun 04:24:22 PM 37.1686 -76.1314 28° Northeast 498 573 35,000  Level Washington Center
Sun 04:25:23 PM 37.2900 -76.0408 31° Northeast 503 579 35,000  Level Washington Center
Sun 04:26:23 PM 37.4114 -75.9525 30° Northeast 508 585 35,000 -50 Level Washington Center
Sun 04:27:22 PM 37.5325 -75.8617 31° Northeast 508 585 34,900 -50 Descending Washington Center
Sun 04:28:22 PM 37.6517 -75.7703 31° Northeast 508 585 34,900  Level Washington Center
Sun 04:29:23 PM 37.7747 -75.6836 29° Northeast 508 585 34,900 50 Level Washington Center
Sun 04:30:21 PM 37.8978 -75.5917 31° Northeast 508 585 35,000 50 Climbing Washington Center
Sun 04:31:22 PM 38.0208 -75.4969 31° Northeast 508 585 35,000  Level Washington Center
Sun 04:32:23 PM 38.1458 -75.4122 28° Northeast 508 585 35,000 -50 Level Washington Center
Sun 04:33:23 PM 38.2731 -75.3325 26° Northeast 503 579 34,900  Descending Washington Center
Sun 04:34:21 PM 38.4103 -75.2392 28° Northeast 503 579 35,000  Climbing Washington Center
Sun 04:35:22 PM 38.5372 -75.1617 26° Northeast 498 573 34,900 -49 Descending Washington Center
Sun 04:36:23 PM 38.6661 -75.0758 27° Northeast 503 579 34,900  Level Washington Center
Sun 04:37:21 PM 38.7931 -74.9950 26° Northeast 508 585 34,900 -50 Level Washington Center
Sun 04:38:22 PM 38.9217 -74.9167 25° Northeast 508 585 34,800 -1,041 Descending Washington Center
Sun 04:39:22 PM 39.0483 -74.8325 27° Northeast 508 585 32,800 -2,628 Descending Washington Center
Sun 04:40:23 PM 39.1561 -74.7378 34° Northeast 513 590 29,500 -3,016 Descending Washington Center
Sun 04:42:31 PM 39.3922 -74.4861 39° Northeast 481 554 23,300 -2,936 Descending New York Center
Sun 04:43:31 PM 39.4917 -74.3728 41° Northeast 455 524 20,300 -2,644 Descending New York Center
Sun 04:44:29 PM 39.5842 -74.2725 40° Northeast 450 518 18,100 -1,210 Descending New York Center
Sun 04:45:30 PM 39.6769 -74.1694 41° Northeast 438 504 17,900 -1,180 Descending New York Center
Sun 04:46:31 PM 39.7586 -74.0814 40° Northeast 427 491 15,700 -2,213 Descending New York Center
Sun 04:47:32 PM 39.8467 -73.9883 39° Northeast 420 483 13,400 -2,017 Descending New York Center
Sun 04:48:30 PM 39.9489 -73.9144 29° Northeast 383 441 11,700 -1,220 Descending New York Center
Sun 04:49:30 PM 40.0275 -73.8558 30° Northeast 341 392 11,000 -700 Descending New York Center
Sun 04:50:30 PM 40.0853 -73.7933 40° Northeast 301 346 10,300 -1,385 Descending New York Center
Sun 04:51:27 PM 40.1667 -73.7333 29° Northeast 292 336 8,300 -1,897 Descending New York TRACON
Sun 04:52:27 PM 40.2167 -73.7833 323° Northwest 267 307 6,600 -1,655 Descending New York TRACON
Sun 04:54:21 PM 40.3167 -73.9000 318° Northwest 263 303 3,500 -1,200 Descending New York TRACON
Sun 04:55:27 PM 40.4000 -73.9500 335° Northwest 258 297 3,000 -238 Descending New York TRACON
Sun 04:56:27 PM 40.4500 -73.9500 360° North 223 257 3,000  Level New York TRACON
Sun 04:57:27 PM 40.5000 -73.9667 346° North 190 219 3,000 -300 Level New York TRACON
Sun 04:58:27 PM 40.5500 -73.9333 27° Northeast 200 230 2,400 -750 Descending New York TRACON
Sun 04:59:27 PM 40.6000 -73.9000 27° Northeast 194 223 1,500 -750 Descending New York TRACON
Sun 05:00:27 PM 40.6500 -73.8667 27° Northeast 154 177 900 -400 Descending New York TRACON
Sun 05:01:27 PM 40.6667 -73.8333 57° Northeast 149 171 700 -200 Descending New York TRACON
Sun 05:04:00 PM 40.6398 -73.7789 North  Level Estimated
Sun 05:11:00 PM 40.6398 -73.7789 North  Level Estimated

Login

Don't have an account? Register now (free) for customized features, flight alerts, and more!